sensor_id;sensor_type;location;lat;lon;timestamp;pressure;altitude;pressure_sealevel;temperature;humidity
48874;BME280;66155;46.204;5.220;2023-02-17T00:04:13;99973.72;;;11.44;40.89
48874;BME280;66155;46.204;5.220;2023-02-17T00:09:14;99976.97;;;11.39;41.06
48874;BME280;66155;46.204;5.220;2023-02-17T00:14:15;99973.22;;;11.35;41.10
48874;BME280;66155;46.204;5.220;2023-02-17T00:19:15;99964.16;;;11.38;41.04
48874;BME280;66155;46.204;5.220;2023-02-17T00:24:27;99974.38;;;11.39;41.03
48874;BME280;66155;46.204;5.220;2023-02-17T00:29:28;99971.81;;;11.51;41.08
48874;BME280;66155;46.204;5.220;2023-02-17T00:34:29;99973.94;;;11.43;41.07
48874;BME280;66155;46.204;5.220;2023-02-17T00:39:29;99973.47;;;11.46;41.04
48874;BME280;66155;46.204;5.220;2023-02-17T00:44:29;99984.72;;;11.46;41.01
48874;BME280;66155;46.204;5.220;2023-02-17T00:49:30;99985.09;;;11.50;41.01
48874;BME280;66155;46.204;5.220;2023-02-17T00:54:30;99990.25;;;11.38;41.27
48874;BME280;66155;46.204;5.220;2023-02-17T00:59:31;99985.25;;;11.36;41.19
48874;BME280;66155;46.204;5.220;2023-02-17T01:04:31;99993.56;;;11.45;40.76
48874;BME280;66155;46.204;5.220;2023-02-17T01:09:31;99992.25;;;11.54;40.74
48874;BME280;66155;46.204;5.220;2023-02-17T01:14:32;99993.06;;;11.55;40.39
48874;BME280;66155;46.204;5.220;2023-02-17T01:19:32;99989.84;;;11.53;40.89
48874;BME280;66155;46.204;5.220;2023-02-17T01:24:33;99992.34;;;11.48;40.51
48874;BME280;66155;46.204;5.220;2023-02-17T01:29:33;99988.88;;;11.35;41.30
48874;BME280;66155;46.204;5.220;2023-02-17T01:34:34;99985.91;;;11.13;41.22
48874;BME280;66155;46.204;5.220;2023-02-17T01:39:34;99991.13;;;11.13;40.94
48874;BME280;66155;46.204;5.220;2023-02-17T01:44:34;99984.91;;;11.14;40.91
48874;BME280;66155;46.204;5.220;2023-02-17T01:49:38;99986.34;;;11.10;41.29
48874;BME280;66155;46.204;5.220;2023-02-17T01:54:44;99984.97;;;11.08;40.90
48874;BME280;66155;46.204;5.220;2023-02-17T01:59:45;99985.69;;;10.96;41.16
48874;BME280;66155;46.204;5.220;2023-02-17T02:04:48;99974.09;;;10.92;41.36
48874;BME280;66155;46.204;5.220;2023-02-17T02:09:55;99976.53;;;10.87;40.89
48874;BME280;66155;46.204;5.220;2023-02-17T02:15:03;99978.16;;;10.88;41.27
48874;BME280;66155;46.204;5.220;2023-02-17T02:31:08;99976.78;;;10.86;40.64
48874;BME280;66155;46.204;5.220;2023-02-17T02:41:33;99967.41;;;10.78;41.04
48874;BME280;66155;46.204;5.220;2023-02-17T02:46:35;99963.66;;;10.74;40.90
48874;BME280;66155;46.204;5.220;2023-02-17T02:51:52;99979.16;;;10.69;41.01
48874;BME280;66155;46.204;5.220;2023-02-17T03:02:30;99979.56;;;10.65;41.42
48874;BME280;66155;46.204;5.220;2023-02-17T03:07:55;99980.44;;;10.59;41.71
48874;BME280;66155;46.204;5.220;2023-02-17T03:13:00;99978.13;;;10.44;41.90
48874;BME280;66155;46.204;5.220;2023-02-17T03:18:02;99979.06;;;10.32;42.19
48874;BME280;66155;46.204;5.220;2023-02-17T03:23:04;99988.47;;;10.26;42.14
48874;BME280;66155;46.204;5.220;2023-02-17T03:28:05;99979.94;;;10.19;41.70
48874;BME280;66155;46.204;5.220;2023-02-17T03:33:06;99968.19;;;10.09;41.97
48874;BME280;66155;46.204;5.220;2023-02-17T03:38:06;99969.81;;;10.04;42.34
48874;BME280;66155;46.204;5.220;2023-02-17T03:43:06;99966.03;;;10.00;42.30
48874;BME280;66155;46.204;5.220;2023-02-17T03:48:07;99971.78;;;10.08;42.28
48874;BME280;66155;46.204;5.220;2023-02-17T03:53:07;99976.41;;;10.06;42.62
48874;BME280;66155;46.204;5.220;2023-02-17T03:58:09;99971.53;;;10.17;42.19
48874;BME280;66155;46.204;5.220;2023-02-17T04:03:10;99978.09;;;10.19;42.23
48874;BME280;66155;46.204;5.220;2023-02-17T04:08:10;99977.53;;;10.17;42.30
48874;BME280;66155;46.204;5.220;2023-02-17T04:13:11;99977.91;;;10.21;42.23
48874;BME280;66155;46.204;5.220;2023-02-17T04:18:11;99981.53;;;10.20;42.34
48874;BME280;66155;46.204;5.220;2023-02-17T04:23:11;99990.50;;;10.24;42.50
48874;BME280;66155;46.204;5.220;2023-02-17T04:28:14;99993.31;;;10.22;42.43
48874;BME280;66155;46.204;5.220;2023-02-17T04:33:15;99994.47;;;10.26;42.08
48874;BME280;66155;46.204;5.220;2023-02-17T04:38:16;99989.47;;;10.25;42.45
48874;BME280;66155;46.204;5.220;2023-02-17T04:43:16;99987.88;;;10.31;42.25
48874;BME280;66155;46.204;5.220;2023-02-17T04:48:17;99994.06;;;10.30;42.20
48874;BME280;66155;46.204;5.220;2023-02-17T04:53:18;99994.28;;;10.28;42.24
48874;BME280;66155;46.204;5.220;2023-02-17T04:58:18;99986.38;;;10.16;42.52
48874;BME280;66155;46.204;5.220;2023-02-17T05:03:19;99993.03;;;10.05;42.99
48874;BME280;66155;46.204;5.220;2023-02-17T05:08:20;100000.69;;;10.00;42.89
48874;BME280;66155;46.204;5.220;2023-02-17T05:13:20;99996.88;;;9.96;43.19
48874;BME280;66155;46.204;5.220;2023-02-17T05:18:20;99990.28;;;10.00;42.97
48874;BME280;66155;46.204;5.220;2023-02-17T05:23:21;99990.03;;;10.02;43.50
48874;BME280;66155;46.204;5.220;2023-02-17T05:28:21;99984.63;;;10.03;43.41
48874;BME280;66155;46.204;5.220;2023-02-17T05:33:22;99980.25;;;10.04;42.97
48874;BME280;66155;46.204;5.220;2023-02-17T05:38:22;99976.44;;;10.00;43.63
48874;BME280;66155;46.204;5.220;2023-02-17T05:43:23;99981.28;;;9.96;43.81
48874;BME280;66155;46.204;5.220;2023-02-17T05:48:24;99984.63;;;10.03;43.24
48874;BME280;66155;46.204;5.220;2023-02-17T05:53:24;99983.63;;;10.04;43.51
48874;BME280;66155;46.204;5.220;2023-02-17T05:58:25;99976.50;;;9.93;43.58
48874;BME280;66155;46.204;5.220;2023-02-17T06:03:26;99989.66;;;9.98;42.88
48874;BME280;66155;46.204;5.220;2023-02-17T06:08:26;99992.34;;;9.92;43.46
48874;BME280;66155;46.204;5.220;2023-02-17T06:13:27;99980.97;;;9.86;43.03
48874;BME280;66155;46.204;5.220;2023-02-17T06:18:27;99982.53;;;9.87;43.29
48874;BME280;66155;46.204;5.220;2023-02-17T06:23:28;99988.75;;;9.86;43.32
48874;BME280;66155;46.204;5.220;2023-02-17T06:28:28;99986.38;;;9.84;43.49
48874;BME280;66155;46.204;5.220;2023-02-17T06:33:29;99998.31;;;9.92;43.47
48874;BME280;66155;46.204;5.220;2023-02-17T06:38:29;99997.34;;;9.93;43.06
48874;BME280;66155;46.204;5.220;2023-02-17T06:43:30;100000.94;;;9.92;43.46
48874;BME280;66155;46.204;5.220;2023-02-17T06:48:30;100007.88;;;9.98;43.19
48874;BME280;66155;46.204;5.220;2023-02-17T06:53:32;100011.75;;;9.89;43.37
48874;BME280;66155;46.204;5.220;2023-02-17T06:58:32;100013.47;;;10.02;43.56
48874;BME280;66155;46.204;5.220;2023-02-17T07:03:35;100021.47;;;10.07;43.42
48874;BME280;66155;46.204;5.220;2023-02-17T07:08:35;100026.06;;;10.12;43.24
48874;BME280;66155;46.204;5.220;2023-02-17T07:13:36;100034.69;;;10.05;43.34
48874;BME280;66155;46.204;5.220;2023-02-17T07:18:37;100036.69;;;10.10;43.23
48874;BME280;66155;46.204;5.220;2023-02-17T07:23:37;100036.47;;;10.12;43.27
48874;BME280;66155;46.204;5.220;2023-02-17T07:28:39;100042.03;;;10.22;42.75
48874;BME280;66155;46.204;5.220;2023-02-17T07:33:40;100052.06;;;10.18;43.13
48874;BME280;66155;46.204;5.220;2023-02-17T07:38:41;100051.59;;;10.28;42.90
48874;BME280;66155;46.204;5.220;2023-02-17T07:43:43;100064.19;;;10.38;43.15
48874;BME280;66155;46.204;5.220;2023-02-17T07:48:43;100065.78;;;10.39;42.94
48874;BME280;66155;46.204;5.220;2023-02-17T07:53:44;100060.34;;;10.40;43.36
48874;BME280;66155;46.204;5.220;2023-02-17T07:58:44;100068.25;;;10.59;42.98
48874;BME280;66155;46.204;5.220;2023-02-17T08:03:46;100075.22;;;10.65;42.59
48874;BME280;66155;46.204;5.220;2023-02-17T08:08:48;100076.53;;;10.74;42.95
48874;BME280;66155;46.204;5.220;2023-02-17T08:14:07;100087.97;;;10.98;42.85
48874;BME280;66155;46.204;5.220;2023-02-17T08:19:07;100093.63;;;11.14;42.39
48874;BME280;66155;46.204;5.220;2023-02-17T08:24:07;100098.28;;;11.12;42.40
48874;BME280;66155;46.204;5.220;2023-02-17T08:29:08;100096.75;;;11.04;42.43
48874;BME280;66155;46.204;5.220;2023-02-17T08:34:10;100094.72;;;11.06;42.38
48874;BME280;66155;46.204;5.220;2023-02-17T08:39:13;100094.78;;;10.99;42.72
48874;BME280;66155;46.204;5.220;2023-02-17T08:44:16;100109.81;;;11.22;42.43
48874;BME280;66155;46.204;5.220;2023-02-17T08:49:20;100112.22;;;11.24;42.45
48874;BME280;66155;46.204;5.220;2023-02-17T08:54:21;100118.38;;;11.30;42.11
48874;BME280;66155;46.204;5.220;2023-02-17T08:59:21;100120.81;;;11.50;42.00
48874;BME280;66155;46.204;5.220;2023-02-17T09:04:21;100120.81;;;11.68;42.23
48874;BME280;66155;46.204;5.220;2023-02-17T09:09:24;100124.06;;;11.82;42.05
48874;BME280;66155;46.204;5.220;2023-02-17T09:14:27;100126.81;;;11.87;42.11
48874;BME280;66155;46.204;5.220;2023-02-17T09:19:28;100124.78;;;12.08;41.99
48874;BME280;66155;46.204;5.220;2023-02-17T09:24:28;100129.28;;;12.19;42.18
48874;BME280;66155;46.204;5.220;2023-02-17T09:29:29;100125.25;;;12.47;42.16
48874;BME280;66155;46.204;5.220;2023-02-17T09:34:29;100120.88;;;12.59;42.21
48874;BME280;66155;46.204;5.220;2023-02-17T09:39:29;100126.31;;;12.58;41.95
48874;BME280;66155;46.204;5.220;2023-02-17T09:44:40;100130.78;;;12.69;42.00
48874;BME280;66155;46.204;5.220;2023-02-17T09:49:45;100135.38;;;12.97;41.69
48874;BME280;66155;46.204;5.220;2023-02-17T10:00:12;100141.88;;;13.18;41.40
48874;BME280;66155;46.204;5.220;2023-02-17T10:05:17;100145.06;;;13.44;40.86
48874;BME280;66155;46.204;5.220;2023-02-17T10:10:22;100147.03;;;13.48;40.75
48874;BME280;66155;46.204;5.220;2023-02-17T10:15:27;100146.41;;;13.70;40.78
48874;BME280;66155;46.204;5.220;2023-02-17T10:20:51;100155.81;;;13.95;40.28
48874;BME280;66155;46.204;5.220;2023-02-17T10:36:34;100157.16;;;14.55;39.72
48874;BME280;66155;46.204;5.220;2023-02-17T10:41:39;100152.53;;;14.74;39.96
48874;BME280;66155;46.204;5.220;2023-02-17T10:46:41;100152.44;;;15.02;39.53
48874;BME280;66155;46.204;5.220;2023-02-17T10:51:43;100159.84;;;15.23;39.09
48874;BME280;66155;46.204;5.220;2023-02-17T10:56:47;100152.75;;;15.23;39.31
48874;BME280;66155;46.204;5.220;2023-02-17T11:01:50;100149.34;;;15.23;39.66
48874;BME280;66155;46.204;5.220;2023-02-17T11:06:52;100143.25;;;15.39;39.60
48874;BME280;66155;46.204;5.220;2023-02-17T11:12:15;100140.03;;;15.54;38.71
48874;BME280;66155;46.204;5.220;2023-02-17T11:17:34;100135.06;;;15.74;38.70
48874;BME280;66155;46.204;5.220;2023-02-17T11:22:38;100135.81;;;15.92;38.66
48874;BME280;66155;46.204;5.220;2023-02-17T11:27:50;100141.38;;;16.23;37.97
48874;BME280;66155;46.204;5.220;2023-02-17T11:32:51;100128.59;;;16.31;37.54
48874;BME280;66155;46.204;5.220;2023-02-17T11:38:02;100123.47;;;16.20;37.82
48874;BME280;66155;46.204;5.220;2023-02-17T11:43:15;100123.94;;;16.11;36.78
48874;BME280;66155;46.204;5.220;2023-02-17T12:15:28;100096.97;;;15.99;41.56
48874;BME280;66155;46.204;5.220;2023-02-17T12:25:49;100081.53;;;16.35;42.33
48874;BME280;66155;46.204;5.220;2023-02-17T12:36:13;100067.47;;;16.51;42.05
48874;BME280;66155;46.204;5.220;2023-02-17T12:46:28;100063.03;;;16.95;42.31
48874;BME280;66155;46.204;5.220;2023-02-17T12:51:38;100047.41;;;16.83;42.86
48874;BME280;66155;46.204;5.220;2023-02-17T13:01:59;100052.06;;;17.08;42.67
48874;BME280;66155;46.204;5.220;2023-02-17T13:07:05;100049.56;;;17.44;42.09
48874;BME280;66155;46.204;5.220;2023-02-17T13:12:09;100051.97;;;17.51;41.96
48874;BME280;66155;46.204;5.220;2023-02-17T13:22:22;100045.75;;;17.82;41.81
48874;BME280;66155;46.204;5.220;2023-02-17T13:32:35;100039.41;;;17.83;41.97
48874;BME280;66155;46.204;5.220;2023-02-17T13:37:40;100029.44;;;17.96;41.88
48874;BME280;66155;46.204;5.220;2023-02-17T13:42:43;100035.53;;;18.01;41.69
48874;BME280;66155;46.204;5.220;2023-02-17T13:47:45;100032.88;;;18.12;41.83
48874;BME280;66155;46.204;5.220;2023-02-17T13:52:46;100032.34;;;18.15;41.57
48874;BME280;66155;46.204;5.220;2023-02-17T13:57:54;100030.50;;;18.41;41.10
48874;BME280;66155;46.204;5.220;2023-02-17T14:03:04;100026.25;;;18.55;40.78
48874;BME280;66155;46.204;5.220;2023-02-17T14:08:12;100034.19;;;18.40;41.07
48874;BME280;66155;46.204;5.220;2023-02-17T14:13:13;100030.78;;;18.09;41.43
48874;BME280;66155;46.204;5.220;2023-02-17T14:18:15;100034.59;;;17.60;42.40
48874;BME280;66155;46.204;5.220;2023-02-17T14:23:26;100036.47;;;17.59;42.21
48874;BME280;66155;46.204;5.220;2023-02-17T14:28:26;100030.94;;;17.76;41.53
48874;BME280;66155;46.204;5.220;2023-02-17T14:33:27;100032.88;;;18.12;41.21
48874;BME280;66155;46.204;5.220;2023-02-17T14:38:30;100037.09;;;18.23;41.11
48874;BME280;66155;46.204;5.220;2023-02-17T14:43:31;100032.34;;;18.04;41.39
48874;BME280;66155;46.204;5.220;2023-02-17T14:48:32;100027.28;;;17.82;41.72
48874;BME280;66155;46.204;5.220;2023-02-17T14:53:33;100038.81;;;17.56;41.98
48874;BME280;66155;46.204;5.220;2023-02-17T14:58:38;100034.50;;;17.24;42.75
48874;BME280;66155;46.204;5.220;2023-02-17T15:03:38;100049.88;;;16.95;43.07
48874;BME280;66155;46.204;5.220;2023-02-17T15:08:38;100047.19;;;16.84;43.63
48874;BME280;66155;46.204;5.220;2023-02-17T15:13:39;100039.44;;;16.72;44.31
48874;BME280;66155;46.204;5.220;2023-02-17T15:18:40;100043.41;;;16.75;44.58
48874;BME280;66155;46.204;5.220;2023-02-17T15:23:40;100034.41;;;16.66;45.01
48874;BME280;66155;46.204;5.220;2023-02-17T15:28:41;100031.97;;;16.91;44.59
48874;BME280;66155;46.204;5.220;2023-02-17T15:33:43;100047.19;;;16.47;46.36
48874;BME280;66155;46.204;5.220;2023-02-17T15:38:43;100047.44;;;16.18;47.00
48874;BME280;66155;46.204;5.220;2023-02-17T15:43:45;100045.50;;;16.73;45.67
48874;BME280;66155;46.204;5.220;2023-02-17T15:48:47;100051.47;;;16.96;45.00
48874;BME280;66155;46.204;5.220;2023-02-17T15:53:49;100055.25;;;16.72;45.80
48874;BME280;66155;46.204;5.220;2023-02-17T15:58:50;100052.75;;;16.56;45.89
48874;BME280;66155;46.204;5.220;2023-02-17T16:03:51;100045.78;;;16.39;46.47
48874;BME280;66155;46.204;5.220;2023-02-17T16:08:52;100054.56;;;15.90;47.82
48874;BME280;66155;46.204;5.220;2023-02-17T16:13:53;100060.56;;;15.86;47.47
48874;BME280;66155;46.204;5.220;2023-02-17T16:18:54;100060.25;;;15.82;48.13
48874;BME280;66155;46.204;5.220;2023-02-17T16:23:54;100066.38;;;15.66;49.48
48874;BME280;66155;46.204;5.220;2023-02-17T16:29:00;100068.50;;;15.47;49.66
48874;BME280;66155;46.204;5.220;2023-02-17T16:34:01;100064.41;;;15.34;50.48
48874;BME280;66155;46.204;5.220;2023-02-17T16:39:05;100060.75;;;15.35;49.61
48874;BME280;66155;46.204;5.220;2023-02-17T16:44:12;100064.81;;;15.26;50.24
48874;BME280;66155;46.204;5.220;2023-02-17T16:49:29;100062.72;;;15.23;51.10
48874;BME280;66155;46.204;5.220;2023-02-17T16:54:32;100052.84;;;15.13;50.69
48874;BME280;66155;46.204;5.220;2023-02-17T16:59:33;100070.53;;;15.00;50.88
48874;BME280;66155;46.204;5.220;2023-02-17T17:04:33;100076.69;;;14.89;51.01
48874;BME280;66155;46.204;5.220;2023-02-17T17:09:33;100073.75;;;14.86;51.15
48874;BME280;66155;46.204;5.220;2023-02-17T17:14:34;100080.97;;;14.78;51.68
48874;BME280;66155;46.204;5.220;2023-02-17T17:19:34;100083.06;;;14.76;51.98
48874;BME280;66155;46.204;5.220;2023-02-17T17:24:35;100085.84;;;14.70;52.60
48874;BME280;66155;46.204;5.220;2023-02-17T17:29:35;100082.91;;;14.66;52.82
48874;BME280;66155;46.204;5.220;2023-02-17T17:34:36;100085.06;;;14.69;52.48
48874;BME280;66155;46.204;5.220;2023-02-17T17:39:36;100081.94;;;14.72;52.29
48874;BME280;66155;46.204;5.220;2023-02-17T17:44:36;100085.09;;;14.74;52.28
48874;BME280;66155;46.204;5.220;2023-02-17T17:49:37;100083.53;;;14.73;52.44
48874;BME280;66155;46.204;5.220;2023-02-17T17:54:37;100087.25;;;14.77;52.09
48874;BME280;66155;46.204;5.220;2023-02-17T17:59:37;100087.41;;;14.71;53.47
48874;BME280;66155;46.204;5.220;2023-02-17T18:04:38;100089.41;;;14.63;53.25
48874;BME280;66155;46.204;5.220;2023-02-17T18:09:38;100095.78;;;14.68;53.41
48874;BME280;66155;46.204;5.220;2023-02-17T18:14:40;100103.00;;;14.60;54.64
48874;BME280;66155;46.204;5.220;2023-02-17T18:19:41;100109.38;;;14.53;54.54
48874;BME280;66155;46.204;5.220;2023-02-17T18:24:41;100104.81;;;14.60;53.80
48874;BME280;66155;46.204;5.220;2023-02-17T18:29:42;100104.81;;;14.60;54.47
48874;BME280;66155;46.204;5.220;2023-02-17T18:34:42;100109.69;;;14.68;53.84
48874;BME280;66155;46.204;5.220;2023-02-17T18:39:42;100112.38;;;14.73;53.67
48874;BME280;66155;46.204;5.220;2023-02-17T18:44:43;100115.88;;;14.79;53.49
48874;BME280;66155;46.204;5.220;2023-02-17T18:49:43;100116.44;;;14.81;53.12
48874;BME280;66155;46.204;5.220;2023-02-17T18:54:44;100124.06;;;14.82;53.19
48874;BME280;66155;46.204;5.220;2023-02-17T18:59:45;100125.66;;;14.83;53.32
48874;BME280;66155;46.204;5.220;2023-02-17T19:04:45;100123.28;;;14.82;53.46
48874;BME280;66155;46.204;5.220;2023-02-17T19:09:46;100124.06;;;14.82;53.49
48874;BME280;66155;46.204;5.220;2023-02-17T19:14:46;100112.78;;;14.82;53.22
48874;BME280;66155;46.204;5.220;2023-02-17T19:19:52;100102.75;;;14.79;53.32
48874;BME280;66155;46.204;5.220;2023-02-17T19:24:53;100112.63;;;14.72;53.66
48874;BME280;66155;46.204;5.220;2023-02-17T19:29:54;100110.47;;;14.69;53.51
48874;BME280;66155;46.204;5.220;2023-02-17T19:34:54;100103.44;;;14.57;54.01
48874;BME280;66155;46.204;5.220;2023-02-17T19:39:55;100112.84;;;14.53;53.84
48874;BME280;66155;46.204;5.220;2023-02-17T19:44:55;100107.41;;;14.43;54.06
48874;BME280;66155;46.204;5.220;2023-02-17T19:49:55;100112.00;;;14.36;53.99
48874;BME280;66155;46.204;5.220;2023-02-17T19:54:56;100117.72;;;14.33;54.05
48874;BME280;66155;46.204;5.220;2023-02-17T19:59:56;100116.69;;;14.34;54.55
48874;BME280;66155;46.204;5.220;2023-02-17T20:04:57;100115.09;;;14.33;55.60
48874;BME280;66155;46.204;5.220;2023-02-17T20:09:57;100119.88;;;14.36;54.67
48874;BME280;66155;46.204;5.220;2023-02-17T20:14:58;100123.06;;;14.38;55.05
48874;BME280;66155;46.204;5.220;2023-02-17T20:19:58;100120.53;;;14.43;54.94
48874;BME280;66155;46.204;5.220;2023-02-17T20:24:59;100125.31;;;14.46;54.69
48874;BME280;66155;46.204;5.220;2023-02-17T20:29:59;100123.16;;;14.43;55.38
48874;BME280;66155;46.204;5.220;2023-02-17T20:35:00;100125.31;;;14.46;55.06
48874;BME280;66155;46.204;5.220;2023-02-17T20:40:00;100127.94;;;14.46;55.17
48874;BME280;66155;46.204;5.220;2023-02-17T20:45:02;100120.97;;;14.40;55.81
48874;BME280;66155;46.204;5.220;2023-02-17T20:50:03;100123.38;;;14.41;55.61
48874;BME280;66155;46.204;5.220;2023-02-17T20:55:08;100116.75;;;14.39;55.67
48874;BME280;66155;46.204;5.220;2023-02-17T21:00:12;100117.81;;;14.38;55.98
48874;BME280;66155;46.204;5.220;2023-02-17T21:05:14;100117.47;;;14.34;56.18
48874;BME280;66155;46.204;5.220;2023-02-17T21:10:24;100122.97;;;14.33;57.21
48874;BME280;66155;46.204;5.220;2023-02-17T21:15:24;100125.34;;;14.34;55.80
48874;BME280;66155;46.204;5.220;2023-02-17T21:20:26;100119.88;;;14.36;55.95
48874;BME280;66155;46.204;5.220;2023-02-17T21:25:26;100112.25;;;14.34;56.13
48874;BME280;66155;46.204;5.220;2023-02-17T21:30:27;100119.31;;;14.34;56.64
48874;BME280;66155;46.204;5.220;2023-02-17T21:35:27;100126.38;;;14.33;56.88
48874;BME280;66155;46.204;5.220;2023-02-17T21:40:28;100114.88;;;14.34;56.48
48874;BME280;66155;46.204;5.220;2023-02-17T21:45:29;100124.56;;;14.34;57.72
48874;BME280;66155;46.204;5.220;2023-02-17T21:50:35;100123.97;;;14.32;57.41
48874;BME280;66155;46.204;5.220;2023-02-17T21:55:35;100122.16;;;14.32;57.17
48874;BME280;66155;46.204;5.220;2023-02-17T22:00:36;100126.13;;;14.35;57.28
48874;BME280;66155;46.204;5.220;2023-02-17T22:05:36;100123.75;;;14.33;57.54
48874;BME280;66155;46.204;5.220;2023-02-17T22:10:38;100133.53;;;14.38;57.05
48874;BME280;66155;46.204;5.220;2023-02-17T22:15:39;100129.09;;;14.38;57.23
48874;BME280;66155;46.204;5.220;2023-02-17T22:20:42;100125.69;;;14.38;57.83
48874;BME280;66155;46.204;5.220;2023-02-17T22:25:43;100131.16;;;14.36;57.77
48874;BME280;66155;46.204;5.220;2023-02-17T22:30:50;100132.25;;;14.40;58.28
48874;BME280;66155;46.204;5.220;2023-02-17T22:36:04;100132.34;;;14.45;58.65
48874;BME280;66155;46.204;5.220;2023-02-17T22:41:19;100134.19;;;14.45;58.42
48874;BME280;66155;46.204;5.220;2023-02-17T22:46:23;100139.19;;;14.47;57.64
48874;BME280;66155;46.204;5.220;2023-02-17T22:51:36;100135.94;;;14.39;59.24
48874;BME280;66155;46.204;5.220;2023-02-17T22:56:37;100138.47;;;14.34;58.44
48874;BME280;66155;46.204;5.220;2023-02-17T23:01:38;100143.28;;;14.25;59.28
48874;BME280;66155;46.204;5.220;2023-02-17T23:06:39;100147.75;;;14.25;59.34
48874;BME280;66155;46.204;5.220;2023-02-17T23:11:39;100143.50;;;14.24;59.24
48874;BME280;66155;46.204;5.220;2023-02-17T23:16:49;100147.88;;;14.18;59.40
48874;BME280;66155;46.204;5.220;2023-02-17T23:21:53;100154.63;;;14.14;59.24
48874;BME280;66155;46.204;5.220;2023-02-17T23:26:55;100150.06;;;14.10;59.60
48874;BME280;66155;46.204;5.220;2023-02-17T23:31:57;100168.09;;;14.06;59.66
48874;BME280;66155;46.204;5.220;2023-02-17T23:36:57;100149.50;;;14.07;59.56
48874;BME280;66155;46.204;5.220;2023-02-17T23:41:58;100161.72;;;14.02;59.88
48874;BME280;66155;46.204;5.220;2023-02-17T23:46:58;100157.72;;;13.99;59.51
48874;BME280;66155;46.204;5.220;2023-02-17T23:51:59;100156.94;;;13.99;59.78
48874;BME280;66155;46.204;5.220;2023-02-17T23:56:59;100152.81;;;14.03;59.62
